sensor_id;sensor_type;location;lat;lon;timestamp;temperature;humidity
15617;DHT22;7908;51.688;7.130;2022-08-24T00:01:29;19.40;99.90
15617;DHT22;7908;51.688;7.130;2022-08-24T00:04:00;19.40;99.90
15617;DHT22;7908;51.688;7.130;2022-08-24T00:06:33;19.30;99.90
15617;DHT22;7908;51.688;7.130;2022-08-24T00:09:02;19.30;99.90
15617;DHT22;7908;51.688;7.130;2022-08-24T00:11:32;19.30;99.90
15617;DHT22;7908;51.688;7.130;2022-08-24T00:14:03;19.20;99.90
15617;DHT22;7908;51.688;7.130;2022-08-24T00:16:36;19.30;99.90
15617;DHT22;7908;51.688;7.130;2022-08-24T00:19:06;19.30;99.90
15617;DHT22;7908;51.688;7.130;2022-08-24T00:21:38;19.20;99.90
15617;DHT22;7908;51.688;7.130;2022-08-24T00:24:07;19.10;99.90
15617;DHT22;7908;51.688;7.130;2022-08-24T00:26:38;19.10;99.90
15617;DHT22;7908;51.688;7.130;2022-08-24T00:29:09;19.10;99.90
15617;DHT22;7908;51.688;7.130;2022-08-24T00:31:43;19.00;99.90
15617;DHT22;7908;51.688;7.130;2022-08-24T00:34:13;19.00;99.90
15617;DHT22;7908;51.688;7.130;2022-08-24T00:36:44;19.10;99.90
15617;DHT22;7908;51.688;7.130;2022-08-24T00:39:20;19.10;99.90
15617;DHT22;7908;51.688;7.130;2022-08-24T00:41:52;19.00;99.90
15617;DHT22;7908;51.688;7.130;2022-08-24T00:44:25;19.00;99.90
15617;DHT22;7908;51.688;7.130;2022-08-24T00:47:02;18.90;99.90
15617;DHT22;7908;51.688;7.130;2022-08-24T00:49:39;18.90;99.90
15617;DHT22;7908;51.688;7.130;2022-08-24T00:52:14;19.00;99.90
15617;DHT22;7908;51.688;7.130;2022-08-24T00:54:52;19.00;99.90
15617;DHT22;7908;51.688;7.130;2022-08-24T00:57:26;19.00;99.90
15617;DHT22;7908;51.688;7.130;2022-08-24T01:00:04;18.90;99.90
15617;DHT22;7908;51.688;7.130;2022-08-24T01:02:38;18.80;99.90
15617;DHT22;7908;51.688;7.130;2022-08-24T01:05:12;18.70;99.90
15617;DHT22;7908;51.688;7.130;2022-08-24T01:07:47;18.60;99.90
15617;DHT22;7908;51.688;7.130;2022-08-24T01:10:18;18.50;99.90
15617;DHT22;7908;51.688;7.130;2022-08-24T01:12:51;18.40;99.90
15617;DHT22;7908;51.688;7.130;2022-08-24T01:15:30;18.40;99.90
15617;DHT22;7908;51.688;7.130;2022-08-24T01:18:01;18.50;99.90
15617;DHT22;7908;51.688;7.130;2022-08-24T01:20:51;18.50;99.90
15617;DHT22;7908;51.688;7.130;2022-08-24T01:23:38;18.50;99.90
15617;DHT22;7908;51.688;7.130;2022-08-24T01:26:11;18.40;99.90
15617;DHT22;7908;51.688;7.130;2022-08-24T01:28:44;18.20;99.90
15617;DHT22;7908;51.688;7.130;2022-08-24T01:31:18;18.20;99.90
15617;DHT22;7908;51.688;7.130;2022-08-24T01:33:52;18.20;99.90
15617;DHT22;7908;51.688;7.130;2022-08-24T01:36:31;18.20;99.90
15617;DHT22;7908;51.688;7.130;2022-08-24T01:39:07;18.10;99.90
15617;DHT22;7908;51.688;7.130;2022-08-24T01:41:38;18.10;99.90
15617;DHT22;7908;51.688;7.130;2022-08-24T01:44:11;18.10;99.90
15617;DHT22;7908;51.688;7.130;2022-08-24T01:46:42;18.10;99.90
15617;DHT22;7908;51.688;7.130;2022-08-24T01:49:12;18.10;99.90
15617;DHT22;7908;51.688;7.130;2022-08-24T01:51:44;18.00;99.90
15617;DHT22;7908;51.688;7.130;2022-08-24T01:54:18;18.00;99.90
15617;DHT22;7908;51.688;7.130;2022-08-24T01:56:48;18.10;99.90
15617;DHT22;7908;51.688;7.130;2022-08-24T01:59:18;17.90;99.90
15617;DHT22;7908;51.688;7.130;2022-08-24T02:01:51;17.80;99.90
15617;DHT22;7908;51.688;7.130;2022-08-24T02:04:24;17.80;99.90
15617;DHT22;7908;51.688;7.130;2022-08-24T02:06:56;17.80;99.90
15617;DHT22;7908;51.688;7.130;2022-08-24T02:09:36;17.90;99.90
15617;DHT22;7908;51.688;7.130;2022-08-24T02:12:06;17.90;99.90
15617;DHT22;7908;51.688;7.130;2022-08-24T02:14:36;17.90;99.90
15617;DHT22;7908;51.688;7.130;2022-08-24T02:17:07;17.90;99.90
15617;DHT22;7908;51.688;7.130;2022-08-24T02:19:39;17.90;99.90
15617;DHT22;7908;51.688;7.130;2022-08-24T02:22:11;17.80;99.90
15617;DHT22;7908;51.688;7.130;2022-08-24T02:24:42;17.60;99.90
15617;DHT22;7908;51.688;7.130;2022-08-24T02:27:11;17.50;99.90
15617;DHT22;7908;51.688;7.130;2022-08-24T02:29:44;17.40;99.90
15617;DHT22;7908;51.688;7.130;2022-08-24T02:32:13;17.40;99.90
15617;DHT22;7908;51.688;7.130;2022-08-24T02:34:43;17.50;99.90
15617;DHT22;7908;51.688;7.130;2022-08-24T02:37:12;17.50;99.90
15617;DHT22;7908;51.688;7.130;2022-08-24T02:39:48;17.50;99.90
15617;DHT22;7908;51.688;7.130;2022-08-24T02:42:21;17.50;99.90
15617;DHT22;7908;51.688;7.130;2022-08-24T02:44:50;17.60;99.90
15617;DHT22;7908;51.688;7.130;2022-08-24T02:47:27;17.60;99.90
15617;DHT22;7908;51.688;7.130;2022-08-24T02:50:06;17.60;99.90
15617;DHT22;7908;51.688;7.130;2022-08-24T02:52:37;17.70;99.90
15617;DHT22;7908;51.688;7.130;2022-08-24T02:55:16;17.60;99.90
15617;DHT22;7908;51.688;7.130;2022-08-24T02:57:49;17.50;99.90
15617;DHT22;7908;51.688;7.130;2022-08-24T03:00:22;17.40;99.90
15617;DHT22;7908;51.688;7.130;2022-08-24T03:02:55;17.30;99.90
15617;DHT22;7908;51.688;7.130;2022-08-24T03:05:28;17.30;99.90
15617;DHT22;7908;51.688;7.130;2022-08-24T03:07:59;17.20;99.90
15617;DHT22;7908;51.688;7.130;2022-08-24T03:10:31;17.20;99.90
15617;DHT22;7908;51.688;7.130;2022-08-24T03:13:01;17.30;99.90
15617;DHT22;7908;51.688;7.130;2022-08-24T03:15:30;17.30;99.90
15617;DHT22;7908;51.688;7.130;2022-08-24T03:18:00;17.30;99.90
15617;DHT22;7908;51.688;7.130;2022-08-24T03:20:29;17.30;99.90
15617;DHT22;7908;51.688;7.130;2022-08-24T03:23:06;17.30;99.90
15617;DHT22;7908;51.688;7.130;2022-08-24T03:25:37;17.30;99.90
15617;DHT22;7908;51.688;7.130;2022-08-24T03:28:06;17.30;99.90
15617;DHT22;7908;51.688;7.130;2022-08-24T03:30:40;17.30;99.90
15617;DHT22;7908;51.688;7.130;2022-08-24T03:33:14;17.30;99.90
15617;DHT22;7908;51.688;7.130;2022-08-24T03:35:46;17.30;99.90
15617;DHT22;7908;51.688;7.130;2022-08-24T03:38:21;17.20;99.90
15617;DHT22;7908;51.688;7.130;2022-08-24T03:40:55;17.00;99.90
15617;DHT22;7908;51.688;7.130;2022-08-24T03:43:25;16.90;99.90
15617;DHT22;7908;51.688;7.130;2022-08-24T03:46:14;16.90;99.90
15617;DHT22;7908;51.688;7.130;2022-08-24T03:48:46;16.80;99.90
15617;DHT22;7908;51.688;7.130;2022-08-24T03:51:19;16.70;99.90
15617;DHT22;7908;51.688;7.130;2022-08-24T03:53:50;16.60;99.90
15617;DHT22;7908;51.688;7.130;2022-08-24T03:56:21;16.60;99.90
15617;DHT22;7908;51.688;7.130;2022-08-24T03:58:51;16.70;99.90
15617;DHT22;7908;51.688;7.130;2022-08-24T04:01:23;16.70;99.90
15617;DHT22;7908;51.688;7.130;2022-08-24T04:03:54;16.80;99.90
15617;DHT22;7908;51.688;7.130;2022-08-24T04:06:23;16.80;99.90
15617;DHT22;7908;51.688;7.130;2022-08-24T04:08:52;16.80;99.90
15617;DHT22;7908;51.688;7.130;2022-08-24T04:11:25;16.80;99.90
15617;DHT22;7908;51.688;7.130;2022-08-24T04:13:57;16.80;99.90
15617;DHT22;7908;51.688;7.130;2022-08-24T04:16:28;16.80;99.90
15617;DHT22;7908;51.688;7.130;2022-08-24T04:19:01;16.70;99.90
15617;DHT22;7908;51.688;7.130;2022-08-24T04:21:32;16.70;99.90
15617;DHT22;7908;51.688;7.130;2022-08-24T04:24:06;16.70;99.90
15617;DHT22;7908;51.688;7.130;2022-08-24T04:26:44;16.70;99.90
15617;DHT22;7908;51.688;7.130;2022-08-24T04:29:18;16.70;99.90
15617;DHT22;7908;51.688;7.130;2022-08-24T04:31:47;16.70;99.90
15617;DHT22;7908;51.688;7.130;2022-08-24T04:34:17;16.60;99.90
15617;DHT22;7908;51.688;7.130;2022-08-24T04:36:46;16.60;99.90
15617;DHT22;7908;51.688;7.130;2022-08-24T04:39:19;16.60;99.90
15617;DHT22;7908;51.688;7.130;2022-08-24T04:41:51;16.60;99.90
15617;DHT22;7908;51.688;7.130;2022-08-24T04:44:22;16.60;99.90
15617;DHT22;7908;51.688;7.130;2022-08-24T04:46:54;16.60;99.90
15617;DHT22;7908;51.688;7.130;2022-08-24T04:49:27;16.70;99.90
15617;DHT22;7908;51.688;7.130;2022-08-24T04:51:59;16.70;99.90
15617;DHT22;7908;51.688;7.130;2022-08-24T04:54:33;16.60;99.90
15617;DHT22;7908;51.688;7.130;2022-08-24T04:57:04;16.60;99.90
15617;DHT22;7908;51.688;7.130;2022-08-24T04:59:34;16.60;99.90
15617;DHT22;7908;51.688;7.130;2022-08-24T05:02:14;16.60;99.90
15617;DHT22;7908;51.688;7.130;2022-08-24T05:04:54;16.60;99.90
15617;DHT22;7908;51.688;7.130;2022-08-24T05:07:28;16.60;99.90
15617;DHT22;7908;51.688;7.130;2022-08-24T05:09:57;16.60;99.90
15617;DHT22;7908;51.688;7.130;2022-08-24T05:12:29;16.60;99.90
15617;DHT22;7908;51.688;7.130;2022-08-24T05:15:10;16.70;99.90
15617;DHT22;7908;51.688;7.130;2022-08-24T05:17:45;16.80;99.90
15617;DHT22;7908;51.688;7.130;2022-08-24T05:20:20;16.90;99.90
15617;DHT22;7908;51.688;7.130;2022-08-24T05:22:51;17.00;99.90
15617;DHT22;7908;51.688;7.130;2022-08-24T05:25:23;17.00;99.90
15617;DHT22;7908;51.688;7.130;2022-08-24T05:27:57;17.10;99.90
15617;DHT22;7908;51.688;7.130;2022-08-24T05:30:30;17.20;99.90
15617;DHT22;7908;51.688;7.130;2022-08-24T05:32:59;17.30;99.90
15617;DHT22;7908;51.688;7.130;2022-08-24T05:35:29;17.30;99.90
15617;DHT22;7908;51.688;7.130;2022-08-24T05:38:09;17.40;99.90
15617;DHT22;7908;51.688;7.130;2022-08-24T05:40:41;17.40;99.90
15617;DHT22;7908;51.688;7.130;2022-08-24T05:43:15;17.50;99.90
15617;DHT22;7908;51.688;7.130;2022-08-24T05:45:56;17.60;99.90
15617;DHT22;7908;51.688;7.130;2022-08-24T05:48:27;17.60;99.90
15617;DHT22;7908;51.688;7.130;2022-08-24T05:50:59;17.60;99.90
15617;DHT22;7908;51.688;7.130;2022-08-24T05:53:29;17.70;99.90
15617;DHT22;7908;51.688;7.130;2022-08-24T05:56:06;17.80;99.90
15617;DHT22;7908;51.688;7.130;2022-08-24T05:58:38;17.90;99.90
15617;DHT22;7908;51.688;7.130;2022-08-24T06:01:13;18.00;99.90
15617;DHT22;7908;51.688;7.130;2022-08-24T06:03:52;18.10;99.90
15617;DHT22;7908;51.688;7.130;2022-08-24T06:06:27;18.30;99.90
15617;DHT22;7908;51.688;7.130;2022-08-24T06:08:58;18.50;99.90
15617;DHT22;7908;51.688;7.130;2022-08-24T06:11:37;18.70;99.90
15617;DHT22;7908;51.688;7.130;2022-08-24T06:14:17;18.90;99.90
15617;DHT22;7908;51.688;7.130;2022-08-24T06:16:53;19.00;99.90
15617;DHT22;7908;51.688;7.130;2022-08-24T06:19:23;19.10;99.90
15617;DHT22;7908;51.688;7.130;2022-08-24T06:22:01;19.20;99.90
15617;DHT22;7908;51.688;7.130;2022-08-24T06:24:35;19.40;99.90
15617;DHT22;7908;51.688;7.130;2022-08-24T06:27:26;19.50;99.90
15617;DHT22;7908;51.688;7.130;2022-08-24T06:30:10;19.60;99.90
15617;DHT22;7908;51.688;7.130;2022-08-24T06:32:42;19.80;99.90
15617;DHT22;7908;51.688;7.130;2022-08-24T06:35:15;19.80;99.90
15617;DHT22;7908;51.688;7.130;2022-08-24T06:37:48;20.00;99.90
15617;DHT22;7908;51.688;7.130;2022-08-24T06:40:20;20.10;99.90
15617;DHT22;7908;51.688;7.130;2022-08-24T06:42:53;20.20;99.90
15617;DHT22;7908;51.688;7.130;2022-08-24T06:45:29;20.30;99.90
15617;DHT22;7908;51.688;7.130;2022-08-24T06:48:01;20.40;99.90
15617;DHT22;7908;51.688;7.130;2022-08-24T06:50:34;20.50;99.90
15617;DHT22;7908;51.688;7.130;2022-08-24T06:53:07;20.70;99.90
15617;DHT22;7908;51.688;7.130;2022-08-24T06:55:47;20.80;99.90
15617;DHT22;7908;51.688;7.130;2022-08-24T06:58:23;20.90;99.90
15617;DHT22;7908;51.688;7.130;2022-08-24T07:01:09;21.00;99.90
15617;DHT22;7908;51.688;7.130;2022-08-24T07:03:44;21.20;99.90
15617;DHT22;7908;51.688;7.130;2022-08-24T07:06:14;21.30;99.90
15617;DHT22;7908;51.688;7.130;2022-08-24T07:08:45;21.40;99.90
15617;DHT22;7908;51.688;7.130;2022-08-24T07:11:20;21.60;99.90
15617;DHT22;7908;51.688;7.130;2022-08-24T07:13:57;21.70;99.90
15617;DHT22;7908;51.688;7.130;2022-08-24T07:16:42;21.90;99.90
15617;DHT22;7908;51.688;7.130;2022-08-24T07:19:12;22.00;99.90
15617;DHT22;7908;51.688;7.130;2022-08-24T07:21:45;22.10;99.90
15617;DHT22;7908;51.688;7.130;2022-08-24T07:24:20;22.20;99.90
15617;DHT22;7908;51.688;7.130;2022-08-24T07:26:58;22.30;99.90
15617;DHT22;7908;51.688;7.130;2022-08-24T07:29:30;22.50;99.90
15617;DHT22;7908;51.688;7.130;2022-08-24T07:32:26;22.70;99.90
15617;DHT22;7908;51.688;7.130;2022-08-24T07:34:58;22.90;99.90
15617;DHT22;7908;51.688;7.130;2022-08-24T07:37:33;23.00;99.90
15617;DHT22;7908;51.688;7.130;2022-08-24T07:40:10;23.10;99.90
15617;DHT22;7908;51.688;7.130;2022-08-24T07:42:49;23.30;99.90
15617;DHT22;7908;51.688;7.130;2022-08-24T07:45:20;23.40;99.90
15617;DHT22;7908;51.688;7.130;2022-08-24T07:47:57;23.50;99.90
15617;DHT22;7908;51.688;7.130;2022-08-24T07:50:40;23.60;99.90
15617;DHT22;7908;51.688;7.130;2022-08-24T07:53:10;23.70;99.90
15617;DHT22;7908;51.688;7.130;2022-08-24T07:56:01;23.70;99.90
15617;DHT22;7908;51.688;7.130;2022-08-24T07:58:34;23.80;99.90
15617;DHT22;7908;51.688;7.130;2022-08-24T08:01:06;23.90;99.90
15617;DHT22;7908;51.688;7.130;2022-08-24T08:03:38;23.90;99.90
15617;DHT22;7908;51.688;7.130;2022-08-24T08:06:11;24.00;99.90
15617;DHT22;7908;51.688;7.130;2022-08-24T08:08:51;24.10;99.90
15617;DHT22;7908;51.688;7.130;2022-08-24T08:11:41;24.10;99.90
15617;DHT22;7908;51.688;7.130;2022-08-24T08:14:11;24.20;99.90
15617;DHT22;7908;51.688;7.130;2022-08-24T08:16:42;24.30;99.90
15617;DHT22;7908;51.688;7.130;2022-08-24T08:19:21;24.40;99.90
15617;DHT22;7908;51.688;7.130;2022-08-24T08:21:59;24.50;99.90
15617;DHT22;7908;51.688;7.130;2022-08-24T08:24:47;24.60;99.90
15617;DHT22;7908;51.688;7.130;2022-08-24T08:27:20;24.70;99.90
15617;DHT22;7908;51.688;7.130;2022-08-24T08:29:56;24.80;99.90
15617;DHT22;7908;51.688;7.130;2022-08-24T08:32:28;24.90;99.90
15617;DHT22;7908;51.688;7.130;2022-08-24T08:35:04;24.90;99.90
15617;DHT22;7908;51.688;7.130;2022-08-24T08:37:41;25.00;99.90
15617;DHT22;7908;51.688;7.130;2022-08-24T08:40:27;25.00;99.90
15617;DHT22;7908;51.688;7.130;2022-08-24T08:43:07;25.10;99.90
15617;DHT22;7908;51.688;7.130;2022-08-24T08:49:10;25.30;99.90
15617;DHT22;7908;51.688;7.130;2022-08-24T08:52:19;25.40;99.90
15617;DHT22;7908;51.688;7.130;2022-08-24T08:55:04;25.50;99.90
15617;DHT22;7908;51.688;7.130;2022-08-24T08:57:57;25.60;99.90
15617;DHT22;7908;51.688;7.130;2022-08-24T09:00:45;25.60;99.90
15617;DHT22;7908;51.688;7.130;2022-08-24T09:03:36;25.70;99.90
15617;DHT22;7908;51.688;7.130;2022-08-24T09:06:38;25.90;99.90
15617;DHT22;7908;51.688;7.130;2022-08-24T09:09:38;25.90;99.90
15617;DHT22;7908;51.688;7.130;2022-08-24T09:12:19;26.10;99.90
15617;DHT22;7908;51.688;7.130;2022-08-24T09:15:30;26.20;99.90
15617;DHT22;7908;51.688;7.130;2022-08-24T09:18:24;26.20;99.90
15617;DHT22;7908;51.688;7.130;2022-08-24T09:21:24;26.20;99.90
15617;DHT22;7908;51.688;7.130;2022-08-24T09:24:09;26.30;99.90
15617;DHT22;7908;51.688;7.130;2022-08-24T09:26:54;26.40;99.90
15617;DHT22;7908;51.688;7.130;2022-08-24T09:30:01;26.50;99.90
15617;DHT22;7908;51.688;7.130;2022-08-24T09:32:49;26.60;99.90
15617;DHT22;7908;51.688;7.130;2022-08-24T09:35:32;26.70;99.90
15617;DHT22;7908;51.688;7.130;2022-08-24T09:38:21;26.80;99.90
15617;DHT22;7908;51.688;7.130;2022-08-24T09:41:15;26.80;99.90
15617;DHT22;7908;51.688;7.130;2022-08-24T09:44:14;26.90;99.90
15617;DHT22;7908;51.688;7.130;2022-08-24T09:50:21;27.10;99.90
15617;DHT22;7908;51.688;7.130;2022-08-24T09:56:17;27.30;99.90
15617;DHT22;7908;51.688;7.130;2022-08-24T09:59:19;27.40;99.90
15617;DHT22;7908;51.688;7.130;2022-08-24T10:02:12;27.40;99.90
15617;DHT22;7908;51.688;7.130;2022-08-24T10:04:59;27.50;99.90
15617;DHT22;7908;51.688;7.130;2022-08-24T10:07:43;27.60;99.90
15617;DHT22;7908;51.688;7.130;2022-08-24T10:10:40;27.80;99.90
15617;DHT22;7908;51.688;7.130;2022-08-24T10:13:23;27.90;99.90
15617;DHT22;7908;51.688;7.130;2022-08-24T10:16:24;27.80;99.90
15617;DHT22;7908;51.688;7.130;2022-08-24T10:19:10;27.90;99.90
15617;DHT22;7908;51.688;7.130;2022-08-24T10:21:55;27.90;99.90
15617;DHT22;7908;51.688;7.130;2022-08-24T10:24:51;28.00;99.90
15617;DHT22;7908;51.688;7.130;2022-08-24T10:27:58;28.10;99.90
15617;DHT22;7908;51.688;7.130;2022-08-24T10:31:06;28.20;99.90
15617;DHT22;7908;51.688;7.130;2022-08-24T10:33:57;28.30;99.90
15617;DHT22;7908;51.688;7.130;2022-08-24T10:36:48;28.20;99.90
15617;DHT22;7908;51.688;7.130;2022-08-24T10:39:59;28.20;99.90
15617;DHT22;7908;51.688;7.130;2022-08-24T10:46:31;28.50;99.90
15617;DHT22;7908;51.688;7.130;2022-08-24T10:52:44;28.40;99.90
15617;DHT22;7908;51.688;7.130;2022-08-24T10:55:24;28.50;99.50
15617;DHT22;7908;51.688;7.130;2022-08-24T10:58:22;28.60;99.50
15617;DHT22;7908;51.688;7.130;2022-08-24T11:01:19;28.70;98.80
15617;DHT22;7908;51.688;7.130;2022-08-24T11:03:59;28.80;98.20
15617;DHT22;7908;51.688;7.130;2022-08-24T11:06:37;28.80;98.00
15617;DHT22;7908;51.688;7.130;2022-08-24T11:09:16;28.80;98.30
15617;DHT22;7908;51.688;7.130;2022-08-24T11:11:51;28.80;97.30
15617;DHT22;7908;51.688;7.130;2022-08-24T11:14:27;29.00;96.20
15617;DHT22;7908;51.688;7.130;2022-08-24T11:17:16;29.20;96.80
15617;DHT22;7908;51.688;7.130;2022-08-24T11:19:50;29.40;95.60
15617;DHT22;7908;51.688;7.130;2022-08-24T11:22:37;29.50;94.90
15617;DHT22;7908;51.688;7.130;2022-08-24T11:25:19;29.50;94.60
15617;DHT22;7908;51.688;7.130;2022-08-24T11:28:02;29.50;94.50
15617;DHT22;7908;51.688;7.130;2022-08-24T11:30:40;29.50;94.40
15617;DHT22;7908;51.688;7.130;2022-08-24T11:33:29;29.50;93.90
15617;DHT22;7908;51.688;7.130;2022-08-24T11:36:19;29.40;94.00
15617;DHT22;7908;51.688;7.130;2022-08-24T11:39:14;29.30;94.00
15617;DHT22;7908;51.688;7.130;2022-08-24T11:42:10;29.50;93.50
15617;DHT22;7908;51.688;7.130;2022-08-24T11:44:50;29.70;92.90
15617;DHT22;7908;51.688;7.130;2022-08-24T11:47:48;29.70;93.30
15617;DHT22;7908;51.688;7.130;2022-08-24T11:50:44;29.90;92.20
15617;DHT22;7908;51.688;7.130;2022-08-24T11:53:34;30.00;92.00
15617;DHT22;7908;51.688;7.130;2022-08-24T11:56:23;29.90;91.70
15617;DHT22;7908;51.688;7.130;2022-08-24T11:59:16;29.90;92.10
15617;DHT22;7908;51.688;7.130;2022-08-24T12:01:52;30.00;91.70
15617;DHT22;7908;51.688;7.130;2022-08-24T12:04:44;29.90;90.60
15617;DHT22;7908;51.688;7.130;2022-08-24T12:07:28;30.00;90.60
15617;DHT22;7908;51.688;7.130;2022-08-24T12:10:17;30.00;90.60
15617;DHT22;7908;51.688;7.130;2022-08-24T12:13:03;30.10;90.60
15617;DHT22;7908;51.688;7.130;2022-08-24T12:15:47;30.30;89.30
15617;DHT22;7908;51.688;7.130;2022-08-24T12:18:33;30.40;89.40
15617;DHT22;7908;51.688;7.130;2022-08-24T12:21:12;30.40;89.80
15617;DHT22;7908;51.688;7.130;2022-08-24T12:23:53;30.50;90.00
15617;DHT22;7908;51.688;7.130;2022-08-24T12:26:44;30.60;89.20
15617;DHT22;7908;51.688;7.130;2022-08-24T12:29:21;30.80;86.10
15617;DHT22;7908;51.688;7.130;2022-08-24T12:32:05;30.80;84.80
15617;DHT22;7908;51.688;7.130;2022-08-24T12:34:46;30.70;84.50
15617;DHT22;7908;51.688;7.130;2022-08-24T12:37:28;30.60;85.30
15617;DHT22;7908;51.688;7.130;2022-08-24T12:40:10;30.60;85.30
15617;DHT22;7908;51.688;7.130;2022-08-24T12:42:52;30.60;85.60
15617;DHT22;7908;51.688;7.130;2022-08-24T12:45:23;30.60;85.10
15617;DHT22;7908;51.688;7.130;2022-08-24T12:48:10;30.70;84.60
15617;DHT22;7908;51.688;7.130;2022-08-24T12:51:06;30.70;83.90
15617;DHT22;7908;51.688;7.130;2022-08-24T12:53:53;30.70;85.80
15617;DHT22;7908;51.688;7.130;2022-08-24T12:57:01;30.60;83.10
15617;DHT22;7908;51.688;7.130;2022-08-24T12:59:48;30.50;84.20
15617;DHT22;7908;51.688;7.130;2022-08-24T13:02:32;30.50;83.60
15617;DHT22;7908;51.688;7.130;2022-08-24T13:05:20;30.50;85.40
15617;DHT22;7908;51.688;7.130;2022-08-24T13:07:51;30.50;83.50
15617;DHT22;7908;51.688;7.130;2022-08-24T13:10:41;30.40;82.40
15617;DHT22;7908;51.688;7.130;2022-08-24T13:13:19;30.40;81.80
15617;DHT22;7908;51.688;7.130;2022-08-24T13:16:00;30.40;82.20
15617;DHT22;7908;51.688;7.130;2022-08-24T13:18:48;30.50;82.00
15617;DHT22;7908;51.688;7.130;2022-08-24T13:21:42;30.60;80.60
15617;DHT22;7908;51.688;7.130;2022-08-24T13:24:41;30.70;79.90
15617;DHT22;7908;51.688;7.130;2022-08-24T13:33:24;30.90;78.40
15617;DHT22;7908;51.688;7.130;2022-08-24T13:39:40;31.10;77.80
15617;DHT22;7908;51.688;7.130;2022-08-24T13:45:48;30.90;77.50
15617;DHT22;7908;51.688;7.130;2022-08-24T13:48:40;30.70;77.10
15617;DHT22;7908;51.688;7.130;2022-08-24T13:51:34;30.60;77.90
15617;DHT22;7908;51.688;7.130;2022-08-24T13:54:19;30.60;78.20
15617;DHT22;7908;51.688;7.130;2022-08-24T13:57:24;30.60;77.40
15617;DHT22;7908;51.688;7.130;2022-08-24T14:03:43;30.50;78.00
15617;DHT22;7908;51.688;7.130;2022-08-24T14:06:33;30.70;78.40
15617;DHT22;7908;51.688;7.130;2022-08-24T14:09:37;30.70;79.90
15617;DHT22;7908;51.688;7.130;2022-08-24T14:12:47;30.80;79.80
15617;DHT22;7908;51.688;7.130;2022-08-24T14:15:43;30.80;79.50
15617;DHT22;7908;51.688;7.130;2022-08-24T14:18:56;30.80;78.70
15617;DHT22;7908;51.688;7.130;2022-08-24T14:21:37;30.90;78.40
15617;DHT22;7908;51.688;7.130;2022-08-24T14:24:23;31.00;77.60
15617;DHT22;7908;51.688;7.130;2022-08-24T14:27:13;31.00;76.20
15617;DHT22;7908;51.688;7.130;2022-08-24T14:30:41;31.00;76.10
15617;DHT22;7908;51.688;7.130;2022-08-24T14:33:42;30.90;77.00
15617;DHT22;7908;51.688;7.130;2022-08-24T14:36:18;30.80;77.70
15617;DHT22;7908;51.688;7.130;2022-08-24T14:39:05;30.80;77.80
15617;DHT22;7908;51.688;7.130;2022-08-24T14:41:49;30.80;77.10
15617;DHT22;7908;51.688;7.130;2022-08-24T14:47:21;30.90;79.30
15617;DHT22;7908;51.688;7.130;2022-08-24T14:50:04;30.90;78.30
15617;DHT22;7908;51.688;7.130;2022-08-24T14:53:00;30.90;77.00
15617;DHT22;7908;51.688;7.130;2022-08-24T14:55:41;30.90;76.30
15617;DHT22;7908;51.688;7.130;2022-08-24T14:58:27;31.10;77.20
15617;DHT22;7908;51.688;7.130;2022-08-24T15:01:23;31.20;75.90
15617;DHT22;7908;51.688;7.130;2022-08-24T15:07:28;31.40;75.40
15617;DHT22;7908;51.688;7.130;2022-08-24T15:10:01;31.50;75.30
15617;DHT22;7908;51.688;7.130;2022-08-24T15:12:40;31.60;74.60
15617;DHT22;7908;51.688;7.130;2022-08-24T15:15:27;31.60;74.10
15617;DHT22;7908;51.688;7.130;2022-08-24T15:18:32;31.60;74.40
15617;DHT22;7908;51.688;7.130;2022-08-24T15:21:32;31.60;74.30
15617;DHT22;7908;51.688;7.130;2022-08-24T15:24:14;31.70;74.50
15617;DHT22;7908;51.688;7.130;2022-08-24T15:27:04;31.60;72.10
15617;DHT22;7908;51.688;7.130;2022-08-24T15:29:49;31.60;72.60
15617;DHT22;7908;51.688;7.130;2022-08-24T15:32:25;31.60;72.40
15617;DHT22;7908;51.688;7.130;2022-08-24T15:35:20;31.60;72.50
15617;DHT22;7908;51.688;7.130;2022-08-24T15:38:15;31.70;71.50
15617;DHT22;7908;51.688;7.130;2022-08-24T15:40:46;31.70;71.10
15617;DHT22;7908;51.688;7.130;2022-08-24T15:43:33;31.70;70.50
15617;DHT22;7908;51.688;7.130;2022-08-24T15:46:24;31.60;71.60
15617;DHT22;7908;51.688;7.130;2022-08-24T15:49:03;31.50;71.70
15617;DHT22;7908;51.688;7.130;2022-08-24T15:51:45;31.40;73.70
15617;DHT22;7908;51.688;7.130;2022-08-24T15:54:33;31.40;75.00
15617;DHT22;7908;51.688;7.130;2022-08-24T15:57:26;31.30;73.60
15617;DHT22;7908;51.688;7.130;2022-08-24T16:00:12;31.20;72.50
15617;DHT22;7908;51.688;7.130;2022-08-24T16:03:25;31.30;72.10
15617;DHT22;7908;51.688;7.130;2022-08-24T16:05:56;31.30;72.40
15617;DHT22;7908;51.688;7.130;2022-08-24T16:08:59;31.30;73.40
15617;DHT22;7908;51.688;7.130;2022-08-24T16:11:40;31.30;73.90
15617;DHT22;7908;51.688;7.130;2022-08-24T16:14:30;31.40;74.10
15617;DHT22;7908;51.688;7.130;2022-08-24T16:17:25;31.20;73.60
15617;DHT22;7908;51.688;7.130;2022-08-24T16:20:02;31.10;74.30
15617;DHT22;7908;51.688;7.130;2022-08-24T16:22:37;31.00;74.40
15617;DHT22;7908;51.688;7.130;2022-08-24T16:25:26;30.90;74.80
15617;DHT22;7908;51.688;7.130;2022-08-24T16:28:33;30.80;75.30
15617;DHT22;7908;51.688;7.130;2022-08-24T16:31:44;30.70;75.20
15617;DHT22;7908;51.688;7.130;2022-08-24T16:34:28;30.50;75.50
15617;DHT22;7908;51.688;7.130;2022-08-24T16:37:29;30.40;77.30
15617;DHT22;7908;51.688;7.130;2022-08-24T16:40:11;30.30;77.00
15617;DHT22;7908;51.688;7.130;2022-08-24T16:42:47;30.20;76.00
15617;DHT22;7908;51.688;7.130;2022-08-24T16:45:40;30.10;76.00
15617;DHT22;7908;51.688;7.130;2022-08-24T16:48:20;30.10;77.30
15617;DHT22;7908;51.688;7.130;2022-08-24T16:51:05;30.10;77.90
15617;DHT22;7908;51.688;7.130;2022-08-24T16:53:51;30.10;76.60
15617;DHT22;7908;51.688;7.130;2022-08-24T16:56:26;30.00;76.20
15617;DHT22;7908;51.688;7.130;2022-08-24T16:59:13;30.00;76.50
15617;DHT22;7908;51.688;7.130;2022-08-24T17:01:50;30.00;76.70
15617;DHT22;7908;51.688;7.130;2022-08-24T17:04:24;30.00;77.30
15617;DHT22;7908;51.688;7.130;2022-08-24T17:07:05;30.00;76.70
15617;DHT22;7908;51.688;7.130;2022-08-24T17:09:55;30.00;77.20
15617;DHT22;7908;51.688;7.130;2022-08-24T17:12:37;30.00;77.00
15617;DHT22;7908;51.688;7.130;2022-08-24T17:15:10;30.00;77.00
15617;DHT22;7908;51.688;7.130;2022-08-24T17:18:02;30.00;77.30
15617;DHT22;7908;51.688;7.130;2022-08-24T17:20:38;29.90;77.50
15617;DHT22;7908;51.688;7.130;2022-08-24T17:23:34;29.80;78.30
15617;DHT22;7908;51.688;7.130;2022-08-24T17:26:12;29.70;78.20
15617;DHT22;7908;51.688;7.130;2022-08-24T17:28:53;29.60;78.80
15617;DHT22;7908;51.688;7.130;2022-08-24T17:31:26;29.50;80.10
15617;DHT22;7908;51.688;7.130;2022-08-24T17:34:10;29.40;82.50
15617;DHT22;7908;51.688;7.130;2022-08-24T17:36:45;29.30;83.10
15617;DHT22;7908;51.688;7.130;2022-08-24T17:39:26;29.20;83.60
15617;DHT22;7908;51.688;7.130;2022-08-24T17:42:07;29.10;84.60
15617;DHT22;7908;51.688;7.130;2022-08-24T17:44:59;29.10;85.80
15617;DHT22;7908;51.688;7.130;2022-08-24T17:47:37;28.90;86.90
15617;DHT22;7908;51.688;7.130;2022-08-24T17:50:28;28.90;86.60